Terminal Aerodrome Forecast
Issued by NWS

Home | Current Version | Previous Version | Text Only | Print | Product List | Glossary On
Versions: 1 2 3 4 5 6 7 8 9 10 11 12 13 14 15 16 17 18 19 20 21 22 23 24 25 26 27
995
FTUS44 KLZK 231120
TAFLIT
TAF
KLIT 231120Z 2312/2412 28008KT P6SM VCSH SCT012 OVC035
      TEMPO 2312/2316 BKN020
     FM231600 31009KT P6SM VCSH BKN025 OVC040
     FM240000 30004KT P6SM SCT025 OVC050=

USA.gov is the U.S. government's official web portal to all federal, state and local government web resources and services.